createdAt,value
2023-11-11T00:02:16.018Z,5.90
2023-11-11T00:04:42.982Z,5.86
2023-11-11T00:07:10.451Z,5.87
2023-11-11T00:09:38.907Z,5.92
2023-11-11T00:12:09.040Z,5.77
2023-11-11T00:14:36.178Z,5.70
2023-11-11T00:17:02.916Z,5.51
2023-11-11T00:19:30.312Z,5.58
2023-11-11T00:21:57.009Z,5.54
2023-11-11T00:24:23.666Z,5.65
2023-11-11T00:26:50.457Z,5.63
2023-11-11T00:29:20.076Z,5.63
2023-11-11T00:31:50.795Z,5.62
2023-11-11T00:34:18.038Z,5.62
2023-11-11T00:36:46.933Z,5.78
2023-11-11T00:39:14.164Z,5.80
2023-11-11T00:41:41.763Z,5.86
2023-11-11T00:44:11.925Z,5.87
2023-11-11T00:46:42.363Z,5.95
2023-11-11T00:49:09.850Z,5.93
2023-11-11T00:51:40.393Z,5.98
2023-11-11T00:54:09.790Z,6.06
2023-11-11T00:56:40.323Z,6.04
2023-11-11T00:59:07.294Z,6.04
2023-11-11T01:01:35.847Z,6.05
2023-11-11T01:04:05.753Z,5.97
2023-11-11T01:06:33.275Z,6.05
2023-11-11T01:08:59.888Z,5.93
2023-11-11T01:11:26.891Z,5.98
2023-11-11T01:13:53.558Z,5.95
2023-11-11T01:16:20.390Z,5.84
2023-11-11T01:18:47.342Z,5.75
2023-11-11T01:21:16.243Z,5.89
2023-11-11T01:23:44.035Z,5.93
2023-11-11T01:26:11.300Z,5.92
2023-11-11T01:28:38.243Z,5.81
2023-11-11T01:31:05.355Z,5.87
2023-11-11T01:33:32.293Z,5.79
2023-11-11T01:36:02.677Z,5.77
2023-11-11T01:38:29.668Z,5.73
2023-11-11T01:40:56.514Z,5.70
2023-11-11T01:43:25.157Z,5.73
2023-11-11T01:45:55.639Z,5.70
2023-11-11T01:48:22.658Z,5.74
2023-11-11T01:50:51.112Z,5.79
2023-11-11T01:53:18.453Z,5.82
2023-11-11T01:55:45.127Z,5.82
2023-11-11T01:58:12.039Z,5.79
2023-11-11T02:00:40.086Z,5.83
2023-11-11T02:03:07.859Z,5.79
2023-11-11T02:05:35.547Z,5.79
2023-11-11T02:08:05.117Z,5.81
2023-11-11T02:10:32.388Z,5.83
2023-11-11T02:13:00.210Z,5.78
2023-11-11T02:15:28.052Z,5.70
2023-11-11T02:17:55.480Z,5.74
2023-11-11T02:20:22.235Z,5.84
2023-11-11T02:22:49.040Z,5.75
2023-11-11T02:25:15.839Z,5.81
2023-11-11T02:27:44.014Z,5.72
2023-11-11T02:30:13.161Z,5.76
2023-11-11T02:32:40.215Z,5.76
2023-11-11T02:35:07.256Z,5.71
2023-11-11T02:37:33.804Z,5.69
2023-11-11T02:40:00.473Z,5.67
2023-11-11T02:42:27.371Z,5.74
2023-11-11T02:44:54.126Z,5.60
2023-11-11T02:47:21.461Z,5.53
2023-11-11T02:49:48.076Z,5.50
2023-11-11T02:52:15.213Z,5.52
2023-11-11T02:54:42.292Z,5.46
2023-11-11T02:57:09.099Z,5.46
2023-11-11T02:59:35.843Z,5.31
2023-11-11T03:02:02.469Z,5.15
2023-11-11T03:04:29.165Z,5.07
2023-11-11T03:06:55.778Z,5.02
2023-11-11T03:09:22.538Z,5.00
2023-11-11T03:11:51.714Z,4.94
2023-11-11T03:14:20.458Z,5.00
2023-11-11T03:16:47.352Z,4.94
2023-11-11T03:19:14.006Z,4.85
2023-11-11T03:21:40.653Z,4.71
2023-11-11T03:24:08.186Z,4.69
2023-11-11T03:26:34.882Z,4.59
2023-11-11T03:29:02.025Z,4.47
2023-11-11T03:31:28.744Z,4.33
2023-11-11T03:33:55.442Z,4.16
2023-11-11T03:36:22.506Z,4.14
2023-11-11T03:38:49.493Z,4.06
2023-11-11T03:41:16.144Z,4.19
2023-11-11T03:43:42.759Z,4.09
2023-11-11T03:46:10.422Z,4.10
2023-11-11T03:48:37.137Z,4.11
2023-11-11T03:51:04.331Z,4.10
2023-11-11T03:53:30.996Z,4.11
2023-11-11T03:55:57.623Z,4.07
2023-11-11T03:58:24.327Z,4.16
2023-11-11T04:00:51.682Z,4.31
2023-11-11T04:03:18.455Z,4.30
2023-11-11T04:05:47.711Z,4.35
2023-11-11T04:08:17.371Z,4.51
2023-11-11T04:10:44.039Z,4.87
2023-11-11T04:13:14.013Z,5.05
2023-11-11T04:15:40.735Z,5.16
2023-11-11T04:18:07.464Z,5.25
2023-11-11T04:20:35.027Z,5.38
2023-11-11T04:23:01.774Z,5.48
2023-11-11T04:25:28.379Z,5.49
2023-11-11T04:27:55.154Z,5.52
2023-11-11T04:30:21.772Z,5.60
2023-11-11T04:32:48.491Z,5.59
2023-11-11T04:35:15.230Z,5.69
2023-11-11T04:37:41.846Z,5.72
2023-11-11T04:40:09.569Z,5.78
2023-11-11T04:42:37.160Z,5.77
2023-11-11T04:45:04.319Z,5.86
2023-11-11T04:47:32.113Z,5.89
2023-11-11T04:49:58.848Z,5.82
2023-11-11T04:52:26.984Z,5.90
2023-11-11T04:54:53.853Z,5.90
2023-11-11T04:57:20.676Z,6.02
2023-11-11T04:59:47.769Z,6.00
2023-11-11T05:02:15.154Z,5.99
2023-11-11T05:04:41.871Z,5.99
2023-11-11T05:07:08.819Z,6.03
2023-11-11T05:09:35.500Z,6.02
2023-11-11T05:12:02.235Z,6.07
2023-11-11T05:14:30.088Z,6.12
2023-11-11T05:16:57.020Z,6.15
2023-11-11T05:19:23.781Z,6.10
2023-11-11T05:21:50.619Z,6.14
2023-11-11T05:24:17.440Z,6.16
2023-11-11T05:26:44.105Z,6.15
2023-11-11T05:29:10.953Z,6.18
2023-11-11T05:31:38.026Z,6.23
2023-11-11T05:34:05.002Z,6.21
2023-11-11T05:36:33.571Z,6.13
2023-11-11T05:39:00.824Z,6.11
2023-11-11T05:41:28.541Z,6.13
2023-11-11T05:43:55.309Z,6.08
2023-11-11T05:46:22.046Z,6.08
2023-11-11T05:48:48.893Z,6.23
2023-11-11T05:51:15.718Z,6.21
2023-11-11T05:53:42.676Z,6.20
2023-11-11T05:56:13.205Z,6.18
2023-11-11T05:58:40.724Z,6.14
2023-11-11T06:01:07.666Z,6.15
2023-11-11T06:03:34.720Z,6.10
2023-11-11T06:06:04.968Z,6.05
2023-11-11T06:08:31.606Z,6.05
2023-11-11T06:10:58.333Z,6.08
2023-11-11T06:13:25.772Z,6.06
2023-11-11T06:15:52.669Z,5.99
2023-11-11T06:18:19.316Z,6.07
2023-11-11T06:20:46.036Z,6.05
2023-11-11T06:25:42.191Z,5.99
2023-11-11T06:28:08.830Z,5.97
2023-11-11T06:30:36.160Z,6.00
2023-11-11T06:33:04.000Z,6.00
2023-11-11T06:35:30.761Z,5.94
2023-11-11T06:37:57.717Z,5.89
2023-11-11T06:40:25.561Z,5.92
2023-11-11T06:42:56.288Z,5.93
2023-11-11T06:45:23.854Z,5.84
2023-11-11T06:47:50.874Z,5.78
2023-11-11T06:50:20.723Z,5.68
2023-11-11T06:52:47.497Z,5.67
2023-11-11T06:55:14.242Z,5.67
2023-11-11T06:57:42.586Z,5.47
2023-11-11T07:00:12.222Z,5.50
2023-11-11T07:02:39.370Z,5.44
2023-11-11T07:05:11.562Z,5.35
2023-11-11T07:07:41.690Z,5.39
2023-11-11T07:10:09.381Z,5.24
2023-11-11T07:12:36.166Z,5.25
2023-11-11T07:15:02.792Z,5.18
2023-11-11T07:17:30.663Z,5.27
2023-11-11T07:19:58.641Z,5.28
2023-11-11T07:22:26.805Z,5.33
2023-11-11T07:24:54.060Z,5.30
2023-11-11T07:27:21.325Z,5.37
2023-11-11T07:29:49.175Z,5.21
2023-11-11T07:32:15.945Z,5.38
2023-11-11T07:34:45.931Z,5.34
2023-11-11T07:37:13.595Z,5.37
2023-11-11T07:39:40.615Z,5.30
2023-11-11T07:42:09.193Z,5.33
2023-11-11T07:44:36.996Z,5.41
2023-11-11T07:47:07.850Z,5.40
2023-11-11T07:49:35.239Z,5.41
2023-11-11T07:52:02.547Z,5.38
2023-11-11T07:54:29.438Z,5.38
2023-11-11T07:56:57.097Z,5.34
2023-11-11T07:59:24.251Z,5.28
2023-11-11T08:01:51.790Z,5.33
2023-11-11T08:04:18.547Z,5.25
2023-11-11T08:06:45.258Z,5.29
2023-11-11T08:09:12.019Z,5.29
2023-11-11T08:11:39.138Z,5.25
2023-11-11T08:14:06.632Z,5.23
2023-11-11T08:16:33.374Z,5.37
2023-11-11T08:19:00.458Z,5.39
2023-11-11T08:21:32.735Z,5.41
2023-11-11T08:24:00.302Z,5.29
2023-11-11T08:26:27.082Z,5.35
2023-11-11T08:28:54.565Z,5.32
2023-11-11T08:31:21.424Z,5.42
2023-11-11T08:33:48.125Z,5.40
2023-11-11T08:36:14.797Z,5.44
2023-11-11T08:38:41.538Z,5.56
2023-11-11T08:41:09.633Z,5.58
2023-11-11T08:43:36.696Z,5.62
2023-11-11T08:46:03.503Z,5.68
2023-11-11T08:48:32.113Z,5.73
2023-11-11T08:50:59.147Z,5.74
2023-11-11T08:53:26.634Z,5.79
2023-11-11T08:55:53.305Z,5.89
2023-11-11T08:58:20.410Z,5.92
2023-11-11T09:00:47.622Z,5.94
2023-11-11T09:03:17.886Z,5.98
2023-11-11T09:05:44.637Z,5.92
2023-11-11T09:08:11.214Z,6.06
2023-11-11T09:10:40.288Z,6.09
2023-11-11T09:13:06.951Z,6.13
2023-11-11T09:15:34.762Z,6.13
2023-11-11T09:18:02.737Z,6.15
2023-11-11T09:20:30.756Z,6.16
2023-11-11T09:22:57.541Z,6.22
2023-11-11T09:25:25.750Z,6.27
2023-11-11T09:27:57.736Z,6.29
2023-11-11T09:30:24.767Z,6.31
2023-11-11T09:32:52.637Z,6.30
2023-11-11T09:35:19.390Z,6.29
2023-11-11T09:37:46.026Z,6.46
2023-11-11T09:40:12.964Z,6.61
2023-11-11T09:42:39.687Z,6.68
2023-11-11T09:47:41.550Z,6.74
2023-11-11T09:50:08.751Z,6.85
2023-11-11T09:52:38.902Z,6.83
2023-11-11T09:55:07.168Z,6.91
2023-11-11T09:57:34.927Z,7.00
2023-11-11T10:00:02.069Z,6.99
2023-11-11T10:02:28.997Z,7.07
2023-11-11T10:04:55.978Z,6.99
2023-11-11T10:07:23.044Z,7.03
2023-11-11T10:09:53.580Z,7.00
2023-11-11T10:12:20.195Z,7.02
2023-11-11T10:14:49.182Z,7.08
2023-11-11T10:17:15.954Z,6.99
2023-11-11T10:19:54.415Z,7.00
2023-11-11T10:22:26.921Z,6.92
2023-11-11T10:24:54.019Z,7.01
2023-11-11T10:27:20.738Z,7.04
2023-11-11T10:29:48.589Z,7.12
2023-11-11T10:32:15.292Z,7.05
2023-11-11T10:34:42.105Z,7.04
2023-11-11T10:37:09.060Z,7.05
2023-11-11T10:39:35.752Z,7.19
2023-11-11T10:42:05.756Z,7.41
2023-11-11T10:44:35.954Z,7.38
2023-11-11T10:47:03.723Z,7.41
2023-11-11T10:49:30.810Z,7.40
2023-11-11T10:52:00.470Z,7.37
2023-11-11T10:54:27.571Z,7.38
2023-11-11T10:56:57.705Z,7.33
2023-11-11T10:59:26.128Z,7.45
2023-11-11T11:01:54.181Z,7.37
2023-11-11T11:04:25.869Z,7.51
2023-11-11T11:07:10.874Z,7.48
2023-11-11T11:09:53.252Z,7.34
2023-11-11T11:12:32.282Z,7.45
2023-11-11T11:15:02.559Z,7.59
2023-11-11T11:17:42.306Z,7.68
2023-11-11T11:20:20.771Z,7.74
2023-11-11T11:22:48.882Z,7.81
2023-11-11T11:25:38.497Z,7.91
2023-11-11T11:28:15.488Z,7.85
2023-11-11T11:30:48.258Z,7.81
2023-11-11T11:33:17.443Z,7.83
2023-11-11T11:35:49.238Z,7.91
2023-11-11T11:38:33.335Z,7.99
2023-11-11T11:41:11.613Z,8.00
2023-11-11T11:43:40.840Z,8.07
2023-11-11T11:46:08.312Z,8.08
2023-11-11T11:48:38.038Z,8.20
2023-11-11T11:51:09.069Z,8.27
2023-11-11T11:53:40.061Z,8.39
2023-11-11T11:56:07.852Z,8.52
2023-11-11T11:58:53.188Z,8.68
2023-11-11T12:01:24.029Z,8.58
2023-11-11T12:03:51.859Z,8.58
2023-11-11T12:06:19.751Z,8.64
2023-11-11T12:12:15.427Z,8.82
2023-11-11T12:14:42.836Z,8.90
2023-11-11T12:17:16.906Z,8.85
2023-11-11T12:19:48.774Z,8.76
2023-11-11T12:22:15.656Z,8.70
2023-11-11T12:24:43.652Z,8.59
2023-11-11T12:27:10.671Z,8.55
2023-11-11T12:29:44.362Z,8.53
2023-11-11T12:32:15.131Z,8.62
2023-11-11T12:34:43.627Z,8.61
2023-11-11T12:37:10.787Z,8.66
2023-11-11T12:39:52.692Z,8.94
2023-11-11T12:42:29.356Z,8.91
2023-11-11T12:44:56.643Z,9.02
2023-11-11T12:47:23.320Z,9.23
2023-11-11T12:49:51.449Z,9.40
2023-11-11T12:52:19.727Z,9.47
2023-11-11T12:54:46.475Z,9.44
2023-11-11T12:57:24.116Z,9.38
2023-11-11T12:59:55.243Z,9.44
2023-11-11T13:02:23.936Z,9.55
2023-11-11T13:04:51.521Z,9.22
2023-11-11T13:07:22.339Z,9.04
2023-11-11T13:09:49.278Z,9.09
2023-11-11T13:12:16.301Z,8.97
2023-11-11T13:14:46.651Z,9.14
2023-11-11T13:17:13.727Z,8.94
2023-11-11T13:19:41.417Z,8.81
2023-11-11T13:22:10.368Z,8.74
2023-11-11T13:24:41.179Z,8.62
2023-11-11T13:27:08.900Z,8.60
2023-11-11T13:29:35.851Z,8.74
2023-11-11T13:32:02.617Z,8.82
2023-11-11T13:34:29.460Z,8.54
2023-11-11T13:36:56.032Z,8.51
2023-11-11T13:39:39.222Z,8.23
2023-11-11T13:42:11.577Z,7.41
2023-11-11T13:44:39.683Z,7.21
2023-11-11T13:47:06.817Z,7.21
2023-11-11T13:49:33.816Z,7.19
2023-11-11T13:52:01.419Z,7.14
2023-11-11T13:54:28.224Z,6.99
2023-11-11T13:56:56.146Z,7.00
2023-11-11T13:59:22.785Z,7.18
2023-11-11T14:01:49.677Z,7.41
2023-11-11T14:04:19.558Z,7.44
2023-11-11T14:06:46.314Z,7.43
2023-11-11T14:09:13.519Z,7.41
2023-11-11T14:11:40.524Z,7.49
2023-11-11T14:14:07.912Z,7.46
2023-11-11T14:16:34.598Z,7.46
2023-11-11T14:19:01.305Z,7.53
2023-11-11T14:21:34.296Z,7.66
2023-11-11T14:24:04.342Z,7.65
2023-11-11T14:26:32.626Z,7.70
2023-11-11T14:28:59.762Z,7.75
2023-11-11T14:31:29.213Z,7.86
2023-11-11T14:34:03.580Z,7.85
2023-11-11T14:36:39.037Z,7.74
2023-11-11T14:39:08.039Z,7.39
2023-11-11T14:41:37.685Z,7.50
2023-11-11T14:44:06.065Z,7.31
2023-11-11T14:46:36.526Z,7.20
2023-11-11T14:49:07.332Z,7.11
2023-11-11T14:51:34.658Z,7.18
2023-11-11T14:54:01.664Z,7.13
2023-11-11T14:56:28.396Z,7.07
2023-11-11T14:58:57.284Z,7.03
2023-11-11T15:01:24.086Z,6.92
2023-11-11T15:03:51.033Z,6.93
2023-11-11T15:06:17.904Z,6.70
2023-11-11T15:08:46.367Z,6.71
2023-11-11T15:11:13.316Z,6.60
2023-11-11T15:13:41.052Z,6.59
2023-11-11T15:16:13.449Z,6.45
2023-11-11T15:18:40.593Z,6.33
2023-11-11T15:21:08.438Z,6.28
2023-11-11T15:23:37.450Z,6.33
2023-11-11T15:26:06.765Z,6.20
2023-11-11T15:28:33.828Z,6.27
2023-11-11T15:31:01.688Z,6.31
2023-11-11T15:33:29.496Z,6.26
2023-11-11T15:35:57.386Z,6.23
2023-11-11T15:38:25.149Z,6.20
2023-11-11T15:40:52.303Z,6.17
2023-11-11T15:43:19.408Z,6.12
2023-11-11T15:45:46.124Z,6.28
2023-11-11T15:48:13.557Z,6.09
2023-11-11T15:50:41.730Z,6.14
2023-11-11T15:53:09.435Z,5.96
2023-11-11T15:55:36.874Z,5.95
2023-11-11T15:58:03.510Z,5.87
2023-11-11T16:00:30.495Z,5.82
2023-11-11T16:02:57.717Z,5.89
2023-11-11T16:05:24.451Z,5.80
2023-11-11T16:07:51.474Z,5.78
2023-11-11T16:10:18.080Z,5.80
2023-11-11T16:12:44.986Z,5.79
2023-11-11T16:15:12.433Z,5.78
2023-11-11T16:17:39.475Z,5.88
2023-11-11T16:20:09.701Z,5.82
2023-11-11T16:22:36.434Z,5.89
2023-11-11T16:25:11.444Z,5.83
2023-11-11T16:27:38.583Z,5.88
2023-11-11T16:30:06.334Z,5.88
2023-11-11T16:32:33.140Z,5.82
2023-11-11T16:35:00.257Z,5.94
2023-11-11T16:37:27.079Z,5.96
2023-11-11T16:39:53.958Z,6.03
2023-11-11T16:42:20.850Z,6.08
2023-11-11T16:44:50.350Z,5.97
2023-11-11T16:47:18.461Z,6.02
2023-11-11T16:49:46.528Z,6.04
2023-11-11T16:52:14.119Z,6.03
2023-11-11T16:54:40.872Z,6.08
2023-11-11T16:57:08.501Z,5.98
2023-11-11T16:59:36.023Z,5.92
2023-11-11T17:02:03.030Z,5.78
2023-11-11T17:04:29.734Z,5.74
2023-11-11T17:06:56.416Z,5.79
2023-11-11T17:09:24.227Z,5.78
2023-11-11T17:11:50.949Z,5.78
2023-11-11T17:14:18.030Z,5.88
2023-11-11T17:16:48.277Z,5.85
2023-11-11T17:19:14.877Z,5.78
2023-11-11T17:21:41.562Z,5.75
2023-11-11T17:24:11.813Z,5.82
2023-11-11T17:26:39.804Z,5.76
2023-11-11T17:29:06.708Z,5.79
2023-11-11T17:31:33.817Z,5.83
2023-11-11T17:34:00.532Z,5.91
2023-11-11T17:36:32.375Z,5.88
2023-11-11T17:38:59.051Z,5.90
2023-11-11T17:41:25.705Z,5.87
2023-11-11T17:43:52.700Z,5.89
2023-11-11T17:46:24.223Z,5.97
2023-11-11T17:48:51.740Z,5.98
2023-11-11T17:51:20.245Z,5.96
2023-11-11T17:53:49.823Z,5.94
2023-11-11T17:56:24.666Z,5.97
2023-11-11T17:58:51.927Z,5.88
2023-11-11T18:01:18.915Z,5.99
2023-11-11T18:03:46.633Z,6.01
2023-11-11T18:06:14.268Z,5.94
2023-11-11T18:08:41.031Z,5.96
2023-11-11T18:11:09.078Z,5.93
2023-11-11T18:13:36.730Z,5.94
2023-11-11T18:16:03.662Z,5.97
2023-11-11T18:18:31.718Z,5.96
2023-11-11T18:20:58.769Z,5.94
2023-11-11T18:23:25.639Z,5.91
2023-11-11T18:25:52.687Z,5.87
2023-11-11T18:28:19.458Z,5.87
2023-11-11T18:30:47.402Z,5.79
2023-11-11T18:33:14.118Z,5.84
2023-11-11T18:35:42.735Z,5.84
2023-11-11T18:38:09.463Z,5.80
2023-11-11T18:40:36.195Z,5.78
2023-11-11T18:43:02.943Z,5.83
2023-11-11T18:45:29.902Z,5.81
2023-11-11T18:47:57.405Z,5.77
2023-11-11T18:50:26.356Z,5.77
2023-11-11T18:52:54.166Z,5.82
2023-11-11T18:55:20.970Z,5.89
2023-11-11T18:57:48.173Z,5.89
2023-11-11T19:00:16.357Z,5.92
2023-11-11T19:02:43.188Z,5.94
2023-11-11T19:05:10.659Z,5.87
2023-11-11T19:07:38.781Z,6.00
2023-11-11T19:10:08.880Z,6.00
2023-11-11T19:12:36.427Z,5.92
2023-11-11T19:15:03.781Z,5.96
2023-11-11T19:17:32.515Z,6.02
2023-11-11T19:20:00.436Z,5.96
2023-11-11T19:22:29.431Z,6.02
2023-11-11T19:24:58.408Z,6.04
2023-11-11T19:27:25.104Z,6.07
2023-11-11T19:29:51.869Z,6.06
2023-11-11T19:32:18.770Z,6.06
2023-11-11T19:34:45.542Z,6.00
2023-11-11T19:37:13.272Z,6.06
2023-11-11T19:39:39.977Z,6.06
2023-11-11T19:42:06.673Z,5.96
2023-11-11T19:44:34.046Z,5.90
2023-11-11T19:47:00.745Z,5.90
2023-11-11T19:49:27.430Z,5.81
2023-11-11T19:51:53.983Z,5.84
2023-11-11T19:54:21.479Z,5.74
2023-11-11T19:56:48.467Z,5.69
2023-11-11T19:59:15.439Z,5.66
2023-11-11T20:01:42.282Z,5.68
2023-11-11T20:04:09.107Z,5.65
2023-11-11T20:06:35.785Z,5.63
2023-11-11T20:09:03.587Z,5.52
2023-11-11T20:11:30.509Z,5.52
2023-11-11T20:13:57.264Z,5.57
2023-11-11T20:16:24.085Z,5.48
2023-11-11T20:18:50.878Z,5.48
2023-11-11T20:21:23.583Z,5.51
2023-11-11T20:23:50.345Z,5.38
2023-11-11T20:26:17.487Z,5.33
2023-11-11T20:28:44.236Z,5.33
2023-11-11T20:31:10.974Z,5.48
2023-11-11T20:33:37.629Z,5.42
2023-11-11T20:36:07.547Z,5.37
2023-11-11T20:38:34.532Z,5.30
2023-11-11T20:41:01.407Z,5.28
2023-11-11T20:43:28.755Z,5.24
2023-11-11T20:45:58.112Z,5.33
2023-11-11T20:48:25.911Z,5.32
2023-11-11T20:50:52.700Z,5.35
2023-11-11T20:53:19.383Z,5.42
2023-11-11T20:55:46.082Z,5.53
2023-11-11T20:58:12.729Z,5.54
2023-11-11T21:00:39.281Z,5.51
2023-11-11T21:03:06.139Z,5.63
2023-11-11T21:05:32.840Z,5.53
2023-11-11T21:07:59.685Z,5.42
2023-11-11T21:10:27.333Z,5.45
2023-11-11T21:12:54.333Z,5.38
2023-11-11T21:15:22.402Z,5.41
2023-11-11T21:17:51.642Z,5.49
2023-11-11T21:20:19.291Z,5.34
2023-11-11T21:22:49.034Z,5.32
2023-11-11T21:25:15.847Z,5.29
2023-11-11T21:27:42.558Z,5.32
2023-11-11T21:30:09.987Z,5.40
2023-11-11T21:32:36.724Z,5.34
2023-11-11T21:35:04.481Z,5.32
2023-11-11T21:37:31.213Z,5.41
2023-11-11T21:39:57.773Z,5.41
2023-11-11T21:42:28.220Z,5.42
2023-11-11T21:44:55.528Z,5.35
2023-11-11T21:47:22.999Z,5.27
2023-11-11T21:49:50.465Z,5.28
2023-11-11T21:52:17.250Z,5.31
2023-11-11T21:54:44.246Z,5.30
2023-11-11T21:57:11.446Z,5.25
2023-11-11T21:59:38.192Z,5.18
2023-11-11T22:02:05.146Z,5.34
2023-11-11T22:04:31.834Z,5.22
2023-11-11T22:06:58.710Z,5.27
2023-11-11T22:09:26.095Z,5.21
2023-11-11T22:11:52.759Z,5.13
2023-11-11T22:14:20.990Z,5.16
2023-11-11T22:16:48.048Z,5.13
2023-11-11T22:19:14.817Z,5.10
2023-11-11T22:21:41.753Z,4.94
2023-11-11T22:24:08.777Z,4.95
2023-11-11T22:26:35.438Z,4.85
2023-11-11T22:29:02.545Z,5.00
2023-11-11T22:31:29.429Z,4.93
2023-11-11T22:33:56.166Z,4.89
2023-11-11T22:36:25.336Z,4.99
2023-11-11T22:38:52.314Z,4.97
2023-11-11T22:41:19.020Z,5.06
2023-11-11T22:43:48.744Z,5.01
2023-11-11T22:46:17.348Z,5.03
2023-11-11T22:48:43.970Z,5.08
2023-11-11T22:51:11.955Z,4.98
2023-11-11T22:53:39.647Z,5.02
2023-11-11T22:56:07.285Z,4.98
2023-11-11T22:58:33.924Z,5.01
2023-11-11T23:01:00.657Z,4.94
2023-11-11T23:03:28.142Z,5.00
2023-11-11T23:05:54.831Z,5.03
2023-11-11T23:08:21.563Z,5.10
2023-11-11T23:13:40.012Z,5.17
2023-11-11T23:16:07.523Z,5.22
2023-11-11T23:18:35.705Z,5.31
2023-11-11T23:21:10.794Z,5.36
2023-11-11T23:23:43.776Z,5.37
2023-11-11T23:26:10.996Z,5.52
2023-11-11T23:28:37.914Z,5.50
2023-11-11T23:31:07.954Z,5.47
2023-11-11T23:33:37.300Z,5.54
2023-11-11T23:36:04.576Z,5.45
2023-11-11T23:38:31.135Z,5.47
2023-11-11T23:40:57.801Z,5.48
2023-11-11T23:43:24.485Z,5.34
2023-11-11T23:45:51.238Z,5.25
2023-11-11T23:48:21.106Z,5.33
2023-11-11T23:50:48.192Z,5.27
2023-11-11T23:53:14.921Z,5.40
2023-11-11T23:55:41.634Z,5.42
2023-11-11T23:58:08.370Z,5.39
